Manhumirim, Brazil
Current Conditions -  °F | °C
As of 12:00 PM on Monday 22 Dec 2014 (Local Time) from SBCP Reporting Station
Few Clouds Few Clouds  
Wind Chill: 95°   Ceiling: Unl
Heat Index: 103°   Visibility: 6mi
Dew Point: 72°   Wind: 14mph
Humidity: 47%   Direction: 360°N
Pressure: 29.85"   Gusts: NA
Location:  20.36°S, 41.96°W
Report Text: SBCP 221400Z 36012KT 9999 FEW035 35/22 Q1011
Loading
Personal Weather Stations






























Interactive Weather Map New forecast layout! Learn more

10-Day Weather Forecast

Advertisements
Track Severe Weather on mobile